Terminal Aerodrome Forecast
Issued by NWS

Home | Current Version | Previous Version | Text Only | Print | Product List | Glossary Off
Versions: 1 2 3 4 5 6 7 8 9 10 11 12 13 14 15 16

365
FTUS43 KMPX 291152 AAA
TAFAXN
TAF AMD
KAXN 291152Z 2912/3012 02004KT 4SM BR SCT002
     FM291500 05008KT P6SM SCT050=

USA.gov is the U.S. government's official web portal to all federal, state and local government web resources and services.